Time,TemperatureF,DewpointF,PressureIn,WindDirection,WindDirectionDegrees,WindSpeedMPH,WindSpeedGustMPH,Humidity,HourlyPrecipIn,Conditions,Clouds,dailyrainin,SoftwareType,DateUTC
2013-09-30 00:12:00,52.0,43.0,29.94,NNE,25,0.0,0.0,71,0.00,,,0.00,,2013-09-30 06:12:00,
2013-09-30 00:22:00,52.0,43.0,29.94,NNE,25,0.0,0.0,72,0.00,,,0.00,,2013-09-30 06:22:00,
2013-09-30 00:42:00,51.0,43.0,29.94,NNE,25,0.0,0.0,73,0.00,,,0.00,,2013-09-30 06:42:00,
2013-09-30 00:52:00,51.0,43.0,29.94,NNE,25,0.0,0.0,75,0.00,,,0.00,,2013-09-30 06:52:00,
2013-09-30 01:12:00,51.0,43.0,29.94,NNE,25,0.0,0.0,75,0.00,,,0.00,,2013-09-30 07:12:00,
2013-09-30 01:22:00,51.0,43.0,29.94,NNE,25,0.0,0.0,74,0.00,,,0.00,,2013-09-30 07:22:00,
2013-09-30 01:42:00,50.0,43.0,29.94,NNE,25,0.0,1.0,76,0.00,,,0.00,,2013-09-30 07:42:00,
2013-09-30 01:53:00,50.0,42.0,29.94,NNE,25,0.0,0.0,74,0.00,,,0.00,,2013-09-30 07:53:00,
2013-09-30 02:12:00,50.0,42.0,29.94,NNE,25,0.0,0.0,73,0.00,,,0.00,,2013-09-30 08:12:00,
2013-09-30 02:22:00,50.0,42.0,29.94,NNE,25,0.0,0.0,74,0.00,,,0.00,,2013-09-30 08:22:00,
2013-09-30 02:42:00,50.0,42.0,29.94,NNE,25,0.0,0.0,75,0.00,,,0.00,,2013-09-30 08:42:00,
2013-09-30 02:52:00,49.0,42.0,29.94,NNE,25,0.0,0.0,77,0.00,,,0.00,,2013-09-30 08:52:00,
2013-09-30 03:11:00,48.0,42.0,29.93,NNE,25,0.0,0.0,79,0.00,,,0.00,,2013-09-30 09:11:00,
2013-09-30 03:22:00,48.0,42.0,29.93,NNE,25,0.0,0.0,80,0.00,,,0.00,,2013-09-30 09:22:00,
2013-09-30 03:54:00,48.0,42.0,29.93,NNE,25,0.0,0.0,81,0.00,,,0.00,,2013-09-30 09:54:00,
2013-09-30 04:13:00,49.0,42.0,29.93,NNE,25,0.0,0.0,78,0.00,,,0.00,,2013-09-30 10:13:00,
2013-09-30 04:23:00,49.0,42.0,29.93,NNE,25,0.0,0.0,77,0.00,,,0.00,,2013-09-30 10:23:00,
2013-09-30 04:53:00,48.0,42.0,29.93,NNE,25,0.0,0.0,81,0.00,,,0.00,,2013-09-30 10:53:00,
2013-09-30 05:12:00,47.0,42.0,29.93,NNE,25,0.0,0.0,82,0.00,,,0.00,,2013-09-30 11:12:00,
2013-09-30 05:22:00,48.0,42.0,29.93,NNE,25,0.0,1.0,79,0.00,,,0.00,,2013-09-30 11:22:00,
2013-09-30 05:43:00,49.0,42.0,29.93,NNE,23,0.0,1.0,78,0.00,,,0.00,,2013-09-30 11:43:00,
2013-09-30 05:52:00,48.0,42.0,29.93,NNE,23,0.0,0.0,79,0.00,,,0.00,,2013-09-30 11:52:00,
2013-09-30 06:12:00,47.0,41.0,29.93,NNE,23,0.0,0.0,81,0.00,,,0.00,,2013-09-30 12:12:00,
2013-09-30 06:22:00,46.0,41.0,29.93,NNE,23,0.0,0.0,83,0.00,,,0.00,,2013-09-30 12:22:00,
2013-09-30 06:42:00,46.0,41.0,29.94,NNE,23,0.0,0.0,83,0.00,,,0.00,,2013-09-30 12:42:00,
2013-09-30 06:52:00,46.0,41.0,29.94,NNE,23,0.0,0.0,83,0.00,,,0.00,,2013-09-30 12:52:00,
2013-09-30 07:11:00,47.0,42.0,29.93,NNE,23,0.0,0.0,82,0.00,,,0.00,,2013-09-30 13:11:00,
2013-09-30 07:22:00,46.0,41.0,29.94,NNE,23,0.0,0.0,82,0.00,,,0.00,,2013-09-30 13:22:00,
2013-09-30 07:42:00,46.0,41.0,29.93,NNE,23,0.0,1.0,82,0.00,,,0.00,,2013-09-30 13:42:00,
2013-09-30 07:52:00,47.0,41.0,29.94,NNE,23,0.0,0.0,81,0.00,,,0.00,,2013-09-30 13:52:00,
2013-09-30 08:11:00,47.0,42.0,29.94,NNE,21,0.0,0.0,82,0.00,,,0.00,,2013-09-30 14:11:00,
2013-09-30 08:22:00,49.0,42.0,29.94,NNE,23,0.0,2.0,78,0.00,,,0.00,,2013-09-30 14:22:00,
2013-09-30 08:42:00,52.0,44.0,29.94,North,1,0.0,1.0,75,0.00,,,0.00,,2013-09-30 14:42:00,
2013-09-30 08:52:00,52.0,44.0,29.94,North,1,0.0,1.0,75,0.00,,,0.00,,2013-09-30 14:52:00,
2013-09-30 09:11:00,54.0,44.0,29.94,NNE,30,0.0,2.0,68,0.00,,,0.00,,2013-09-30 15:11:00,
2013-09-30 09:23:00,57.0,45.0,29.94,NNW,341,1.0,4.0,63,0.00,,,0.00,,2013-09-30 15:23:00,
2013-09-30 09:45:00,59.0,46.0,29.94,NNE,29,1.0,4.0,61,0.00,,,0.00,,2013-09-30 15:45:00,
2013-09-30 09:54:00,61.0,47.0,29.94,NE,34,0.0,5.0,59,0.00,,,0.00,,2013-09-30 15:54:00,
2013-09-30 10:14:00,64.0,47.0,29.94,NNW,342,0.0,2.0,55,0.00,,,0.00,,2013-09-30 16:14:00,
2013-09-30 10:24:00,66.0,47.0,29.93,NE,56,0.0,1.0,50,0.00,,,0.00,,2013-09-30 16:24:00,
2013-09-30 10:44:00,68.0,46.0,29.93,NNE,16,1.0,5.0,46,0.00,,,0.00,,2013-09-30 16:44:00,
2013-09-30 10:53:00,69.0,43.0,29.93,NNE,20,2.0,5.0,39,0.00,,,0.00,,2013-09-30 16:53:00,
2013-09-30 11:13:00,72.0,44.0,29.93,NNW,337,1.0,4.0,36,0.00,,,0.00,,2013-09-30 17:13:00,
2013-09-30 11:23:00,74.0,44.0,29.92,WSW,257,0.0,2.0,34,0.00,,,0.00,,2013-09-30 17:23:00,
2013-09-30 11:43:00,76.0,46.0,29.92,ENE,76,0.0,2.0,34,0.00,,,0.00,,2013-09-30 17:43:00,
2013-09-30 11:53:00,76.0,46.0,29.92,ENE,76,0.0,2.0,34,0.00,,,0.00,,2013-09-30 17:53:00,
2013-09-30 12:12:00,80.0,44.0,29.91,ESE,114,0.0,1.0,28,0.00,,,0.00,,2013-09-30 18:12:00,
2013-09-30 12:22:00,81.0,47.0,29.90,WNW,295,0.0,2.0,31,0.00,,,0.00,,2013-09-30 18:22:00,
2013-09-30 12:42:00,81.0,42.0,29.89,SSE,160,0.0,3.0,25,0.00,,,0.00,,2013-09-30 18:42:00,
2013-09-30 12:53:00,83.0,44.0,29.88,South,191,1.0,5.0,25,0.00,,,0.00,,2013-09-30 18:53:00,
2013-09-30 13:12:00,83.0,40.0,29.87,NNE,25,0.0,2.0,22,0.00,,,0.00,,2013-09-30 19:12:00,
2013-09-30 13:22:00,83.0,42.0,29.86,SE,129,0.0,2.0,24,0.00,,,0.00,,2013-09-30 19:22:00,
2013-09-30 13:42:00,85.0,44.0,29.85,NE,34,0.0,3.0,24,0.00,,,0.00,,2013-09-30 19:42:00,
2013-09-30 13:53:00,85.0,46.0,29.84,SSE,159,0.0,2.0,26,0.00,,,0.00,,2013-09-30 19:53:00,
2013-09-30 14:13:00,85.0,42.0,29.83,East,89,1.0,5.0,22,0.00,,,0.00,,2013-09-30 20:13:00,
2013-09-30 14:23:00,85.0,44.0,29.82,ENE,62,0.0,3.0,24,0.00,,,0.00,,2013-09-30 20:23:00,
2013-09-30 14:43:00,84.0,41.0,29.80,WSW,246,0.0,4.0,22,0.00,,,0.00,,2013-09-30 20:43:00,
2013-09-30 14:53:00,86.0,38.0,29.80,SW,228,0.0,4.0,18,0.00,,,0.00,,2013-09-30 20:53:00,
2013-09-30 15:11:00,88.0,39.0,29.79,SW,219,1.0,5.0,18,0.00,,,0.00,,2013-09-30 21:11:00,
2013-09-30 15:22:00,87.0,37.0,29.79,SSE,155,1.0,7.0,17,0.00,,,0.00,,2013-09-30 21:22:00,
2013-09-30 15:44:00,87.0,37.0,29.78,West,276,0.0,3.0,17,0.00,,,0.00,,2013-09-30 21:44:00,
2013-09-30 15:54:00,87.0,34.0,29.77,ENE,58,1.0,4.0,15,0.00,,,0.00,,2013-09-30 21:54:00,
2013-09-30 16:13:00,86.0,36.0,29.77,NE,37,1.0,5.0,17,0.00,,,0.00,,2013-09-30 22:13:00,
2013-09-30 16:23:00,87.0,38.0,29.76,NW,315,0.0,5.0,18,0.00,,,0.00,,2013-09-30 22:23:00,
2013-09-30 16:44:00,86.0,31.0,29.76,SE,141,0.0,5.0,14,0.00,,,0.00,,2013-09-30 22:44:00,
2013-09-30 16:54:00,86.0,36.0,29.75,SSE,148,0.0,3.0,17,0.00,,,0.00,,2013-09-30 22:54:00,
2013-09-30 17:12:00,86.0,27.0,29.75,NE,40,0.0,6.0,12,0.00,,,0.00,,2013-09-30 23:12:00,
2013-09-30 17:23:00,85.0,32.0,29.75,NE,51,1.0,5.0,15,0.00,,,0.00,,2013-09-30 23:23:00,
2013-09-30 17:43:00,84.0,31.0,29.75,NW,307,1.0,3.0,15,0.00,,,0.00,,2013-09-30 23:43:00,
2013-09-30 17:53:00,83.0,29.0,29.75,ENE,77,1.0,3.0,14,0.00,,,0.00,,2013-09-30 23:53:00,
2013-09-30 18:12:00,82.0,28.0,29.75,ENE,77,0.0,5.0,14,0.00,,,0.00,,2013-10-01 00:12:00,
2013-09-30 18:22:00,81.0,36.0,29.75,NE,56,0.0,3.0,20,0.00,,,0.00,,2013-10-01 00:22:00,
2013-09-30 21:22:00,66.0,33.0,29.78,ESE,107,0.0,1.0,29,0.00,,,0.00,,2013-10-01 03:22:00,
2013-09-30 21:44:00,66.0,33.0,29.79,ESE,113,0.0,1.0,29,0.00,,,0.00,,2013-10-01 03:44:00,
2013-09-30 21:55:00,65.0,33.0,29.79,ESE,113,0.0,1.0,30,0.00,,,0.00,,2013-10-01 03:55:00,
2013-09-30 22:24:00,65.0,31.0,29.80,ESE,111,0.0,0.0,28,0.00,,,0.00,,2013-10-01 04:24:00,